sensor_id;sensor_type;location;lat;lon;timestamp;pressure;altitude;pressure_sealevel;temperature;humidity
13934;BME280;7039;52.168;9.866;2023-08-31T00:00:40;99639.94;;;13.42;99.80
13934;BME280;7039;52.168;9.866;2023-08-31T00:03:09;99656.22;;;13.46;99.98
13934;BME280;7039;52.168;9.866;2023-08-31T00:05:37;99657.06;;;13.46;99.70
13934;BME280;7039;52.168;9.866;2023-08-31T00:08:06;99649.69;;;13.40;100.00
13934;BME280;7039;52.168;9.866;2023-08-31T00:10:34;99664.53;;;13.40;99.79
13934;BME280;7039;52.168;9.866;2023-08-31T00:13:02;99664.56;;;13.51;99.32
13934;BME280;7039;52.168;9.866;2023-08-31T00:15:31;99661.75;;;13.54;98.88
13934;BME280;7039;52.168;9.866;2023-08-31T00:18:01;99665.50;;;13.39;99.83
13934;BME280;7039;52.168;9.866;2023-08-31T00:20:29;99668.38;;;13.35;99.40
13934;BME280;7039;52.168;9.866;2023-08-31T00:22:59;99668.84;;;13.41;99.68
13934;BME280;7039;52.168;9.866;2023-08-31T00:25:26;99681.47;;;13.35;100.00
13934;BME280;7039;52.168;9.866;2023-08-31T00:27:54;99667.97;;;13.29;99.66
13934;BME280;7039;52.168;9.866;2023-08-31T00:30:22;99684.66;;;13.39;100.00
13934;BME280;7039;52.168;9.866;2023-08-31T00:32:56;99678.72;;;13.37;99.89
13934;BME280;7039;52.168;9.866;2023-08-31T00:35:25;99681.50;;;13.47;99.59
13934;BME280;7039;52.168;9.866;2023-08-31T00:37:53;99680.63;;;13.46;99.25
13934;BME280;7039;52.168;9.866;2023-08-31T00:40:22;99680.66;;;13.57;98.63
13934;BME280;7039;52.168;9.866;2023-08-31T00:42:49;99683.41;;;13.45;99.14
13934;BME280;7039;52.168;9.866;2023-08-31T00:45:17;99681.28;;;13.61;98.24
13934;BME280;7039;52.168;9.866;2023-08-31T00:47:44;99672.06;;;13.44;98.47
13934;BME280;7039;52.168;9.866;2023-08-31T00:50:14;99685.94;;;13.69;97.81
13934;BME280;7039;52.168;9.866;2023-08-31T00:52:42;99681.84;;;13.53;98.10
13934;BME280;7039;52.168;9.866;2023-08-31T00:55:12;99686.94;;;13.44;99.06
13934;BME280;7039;52.168;9.866;2023-08-31T00:57:39;99683.84;;;13.39;99.08
13934;BME280;7039;52.168;9.866;2023-08-31T01:00:08;99685.84;;;13.35;99.33
13934;BME280;7039;52.168;9.866;2023-08-31T01:02:42;99680.75;;;13.33;99.71
13934;BME280;7039;52.168;9.866;2023-08-31T01:05:24;99673.59;;;13.35;99.39
13934;BME280;7039;52.168;9.866;2023-08-31T01:07:58;99682.28;;;13.36;99.37
13934;BME280;7039;52.168;9.866;2023-08-31T01:10:36;99669.44;;;13.44;98.66
13934;BME280;7039;52.168;9.866;2023-08-31T01:13:12;99673.63;;;13.47;97.99
13934;BME280;7039;52.168;9.866;2023-08-31T01:15:43;99683.25;;;13.46;98.29
13934;BME280;7039;52.168;9.866;2023-08-31T01:18:16;99686.00;;;13.45;98.11
13934;BME280;7039;52.168;9.866;2023-08-31T01:20:50;99690.34;;;13.33;98.18
13934;BME280;7039;52.168;9.866;2023-08-31T01:23:21;99689.31;;;13.35;97.77
13934;BME280;7039;52.168;9.866;2023-08-31T01:25:58;99696.59;;;13.43;97.80
13934;BME280;7039;52.168;9.866;2023-08-31T01:28:25;99689.25;;;13.24;98.27
13934;BME280;7039;52.168;9.866;2023-08-31T01:30:54;99698.16;;;13.22;99.07
13934;BME280;7039;52.168;9.866;2023-08-31T01:33:21;99698.03;;;13.23;98.90
13934;BME280;7039;52.168;9.866;2023-08-31T01:35:51;99694.41;;;13.37;97.90
13934;BME280;7039;52.168;9.866;2023-08-31T01:38:27;99698.16;;;13.46;97.49
13934;BME280;7039;52.168;9.866;2023-08-31T01:41:05;99703.44;;;13.33;98.03
13934;BME280;7039;52.168;9.866;2023-08-31T01:43:34;99706.19;;;13.31;97.43
13934;BME280;7039;52.168;9.866;2023-08-31T01:46:03;99700.63;;;13.36;97.27
13934;BME280;7039;52.168;9.866;2023-08-31T01:48:31;99701.22;;;13.40;96.89
13934;BME280;7039;52.168;9.866;2023-08-31T01:50:59;99699.31;;;13.42;96.86
13934;BME280;7039;52.168;9.866;2023-08-31T01:53:26;99709.22;;;13.25;97.85
13934;BME280;7039;52.168;9.866;2023-08-31T01:55:55;99704.28;;;13.09;98.38
13934;BME280;7039;52.168;9.866;2023-08-31T01:58:24;99719.41;;;13.17;98.81
13934;BME280;7039;52.168;9.866;2023-08-31T02:00:51;99711.97;;;13.00;99.80
13934;BME280;7039;52.168;9.866;2023-08-31T02:03:18;99715.00;;;13.06;99.64
13934;BME280;7039;52.168;9.866;2023-08-31T02:05:45;99717.47;;;13.08;99.33
13934;BME280;7039;52.168;9.866;2023-08-31T02:08:13;99714.53;;;13.12;98.72
13934;BME280;7039;52.168;9.866;2023-08-31T02:10:43;99715.88;;;13.18;99.00
13934;BME280;7039;52.168;9.866;2023-08-31T02:13:10;99725.28;;;13.21;99.44
13934;BME280;7039;52.168;9.866;2023-08-31T02:15:39;99719.50;;;13.04;100.00
13934;BME280;7039;52.168;9.866;2023-08-31T02:18:07;99715.59;;;13.10;99.55
13934;BME280;7039;52.168;9.866;2023-08-31T02:20:35;99723.78;;;13.05;99.67
13934;BME280;7039;52.168;9.866;2023-08-31T02:23:02;99724.44;;;12.96;100.00
13934;BME280;7039;52.168;9.866;2023-08-31T02:25:29;99727.56;;;13.01;100.00
13934;BME280;7039;52.168;9.866;2023-08-31T02:28:00;99732.78;;;13.01;100.00
13934;BME280;7039;52.168;9.866;2023-08-31T02:30:28;99733.81;;;13.11;99.46
13934;BME280;7039;52.168;9.866;2023-08-31T02:32:56;99733.81;;;13.11;99.30
13934;BME280;7039;52.168;9.866;2023-08-31T02:35:23;99728.75;;;12.97;99.30
13934;BME280;7039;52.168;9.866;2023-08-31T02:37:50;99732.25;;;13.09;99.34
13934;BME280;7039;52.168;9.866;2023-08-31T02:40:18;99730.16;;;13.01;99.52
13934;BME280;7039;52.168;9.866;2023-08-31T02:42:50;99737.59;;;13.07;99.22
13934;BME280;7039;52.168;9.866;2023-08-31T02:45:18;99736.91;;;13.16;98.30
13934;BME280;7039;52.168;9.866;2023-08-31T02:47:48;99740.06;;;13.22;98.32
13934;BME280;7039;52.168;9.866;2023-08-31T02:50:19;99732.41;;;13.19;98.25
13934;BME280;7039;52.168;9.866;2023-08-31T02:52:46;99734.94;;;13.20;98.43
13934;BME280;7039;52.168;9.866;2023-08-31T02:55:14;99736.72;;;13.20;98.01
13934;BME280;7039;52.168;9.866;2023-08-31T02:57:47;99733.56;;;13.14;98.21
13934;BME280;7039;52.168;9.866;2023-08-31T03:00:15;99728.66;;;13.10;98.36
13934;BME280;7039;52.168;9.866;2023-08-31T03:02:42;99733.13;;;13.21;98.23
13934;BME280;7039;52.168;9.866;2023-08-31T03:05:10;99733.25;;;13.19;97.68
13934;BME280;7039;52.168;9.866;2023-08-31T03:07:39;99733.84;;;13.35;96.60
13934;BME280;7039;52.168;9.866;2023-08-31T03:10:06;99730.25;;;13.36;96.17
13934;BME280;7039;52.168;9.866;2023-08-31T03:12:35;99742.19;;;13.41;95.73
13934;BME280;7039;52.168;9.866;2023-08-31T03:15:02;99735.06;;;13.43;95.55
13934;BME280;7039;52.168;9.866;2023-08-31T03:17:30;99734.56;;;13.38;95.38
13934;BME280;7039;52.168;9.866;2023-08-31T03:19:57;99733.84;;;13.35;95.20
13934;BME280;7039;52.168;9.866;2023-08-31T03:22:26;99738.59;;;13.42;95.02
13934;BME280;7039;52.168;9.866;2023-08-31T03:24:55;99739.28;;;13.56;94.79
13934;BME280;7039;52.168;9.866;2023-08-31T03:27:23;99729.09;;;13.41;94.61
13934;BME280;7039;52.168;9.866;2023-08-31T03:29:50;99735.22;;;13.28;95.14
13934;BME280;7039;52.168;9.866;2023-08-31T03:32:18;99733.88;;;13.23;95.68
13934;BME280;7039;52.168;9.866;2023-08-31T03:34:45;99735.53;;;13.24;95.64
13934;BME280;7039;52.168;9.866;2023-08-31T03:37:14;99739.53;;;13.16;95.70
13934;BME280;7039;52.168;9.866;2023-08-31T03:39:42;99739.53;;;13.29;95.56
13934;BME280;7039;52.168;9.866;2023-08-31T03:42:10;99739.00;;;13.24;95.59
13934;BME280;7039;52.168;9.866;2023-08-31T03:44:37;99737.84;;;13.28;94.89
13934;BME280;7039;52.168;9.866;2023-08-31T03:47:05;99744.53;;;13.32;94.73
13934;BME280;7039;52.168;9.866;2023-08-31T03:49:32;99736.91;;;13.16;95.00
13934;BME280;7039;52.168;9.866;2023-08-31T03:52:01;99742.16;;;13.29;94.26
13934;BME280;7039;52.168;9.866;2023-08-31T03:54:28;99755.88;;;13.20;94.95
13934;BME280;7039;52.168;9.866;2023-08-31T03:56:57;99743.31;;;13.12;95.12
13934;BME280;7039;52.168;9.866;2023-08-31T03:59:26;99747.28;;;13.18;94.87
13934;BME280;7039;52.168;9.866;2023-08-31T04:01:53;99741.63;;;13.24;94.45
13934;BME280;7039;52.168;9.866;2023-08-31T04:04:22;99747.53;;;13.15;94.60
13934;BME280;7039;52.168;9.866;2023-08-31T04:06:51;99738.97;;;13.00;95.47
13934;BME280;7039;52.168;9.866;2023-08-31T04:09:19;99762.72;;;13.10;95.15
13934;BME280;7039;52.168;9.866;2023-08-31T04:11:47;99748.47;;;12.77;96.52
13934;BME280;7039;52.168;9.866;2023-08-31T04:14:17;99755.81;;;12.72;97.38
13934;BME280;7039;52.168;9.866;2023-08-31T04:16:46;99769.19;;;12.80;96.97
13934;BME280;7039;52.168;9.866;2023-08-31T04:19:15;99765.44;;;12.71;97.51
13934;BME280;7039;52.168;9.866;2023-08-31T04:21:42;99773.66;;;12.91;96.37
13934;BME280;7039;52.168;9.866;2023-08-31T04:24:09;99773.44;;;12.94;96.62
13934;BME280;7039;52.168;9.866;2023-08-31T04:26:38;99773.97;;;12.99;96.39
13934;BME280;7039;52.168;9.866;2023-08-31T04:29:08;99781.09;;;12.97;96.36
13934;BME280;7039;52.168;9.866;2023-08-31T04:32:06;99779.03;;;13.13;95.81
13934;BME280;7039;52.168;9.866;2023-08-31T04:34:33;99783.16;;;13.05;95.69
13934;BME280;7039;52.168;9.866;2023-08-31T04:37:01;99777.84;;;12.93;95.88
13934;BME280;7039;52.168;9.866;2023-08-31T04:39:29;99772.94;;;12.89;95.91
13934;BME280;7039;52.168;9.866;2023-08-31T04:41:57;99771.41;;;12.73;96.47
13934;BME280;7039;52.168;9.866;2023-08-31T04:47:01;99782.22;;;12.56;98.14
13934;BME280;7039;52.168;9.866;2023-08-31T04:49:31;99788.56;;;12.65;97.36
13934;BME280;7039;52.168;9.866;2023-08-31T04:52:29;99792.78;;;12.67;97.29
13934;BME280;7039;52.168;9.866;2023-08-31T04:55:30;99798.19;;;12.77;96.70
13934;BME280;7039;52.168;9.866;2023-08-31T04:58:04;99805.50;;;12.85;96.79
13934;BME280;7039;52.168;9.866;2023-08-31T05:00:38;99809.16;;;12.82;96.44
13934;BME280;7039;52.168;9.866;2023-08-31T05:03:18;99805.19;;;12.89;96.37
13934;BME280;7039;52.168;9.866;2023-08-31T05:05:46;99810.38;;;13.02;95.71
13934;BME280;7039;52.168;9.866;2023-08-31T05:08:29;99820.53;;;13.07;95.32
13934;BME280;7039;52.168;9.866;2023-08-31T05:18:46;99831.50;;;13.49;93.15
13934;BME280;7039;52.168;9.866;2023-08-31T05:21:12;99828.63;;;13.41;93.29
13934;BME280;7039;52.168;9.866;2023-08-31T05:23:39;99840.50;;;13.57;92.31
13934;BME280;7039;52.168;9.866;2023-08-31T05:26:05;99837.94;;;13.69;91.71
13934;BME280;7039;52.168;9.866;2023-08-31T05:28:32;99844.56;;;13.86;91.49
13934;BME280;7039;52.168;9.866;2023-08-31T05:31:00;99843.72;;;13.85;90.98
13934;BME280;7039;52.168;9.866;2023-08-31T05:33:27;99844.69;;;13.84;90.83
13934;BME280;7039;52.168;9.866;2023-08-31T05:36:00;99856.31;;;14.04;90.59
13934;BME280;7039;52.168;9.866;2023-08-31T05:38:28;99847.00;;;14.00;89.47
13934;BME280;7039;52.168;9.866;2023-08-31T05:41:03;99855.28;;;14.18;89.23
13934;BME280;7039;52.168;9.866;2023-08-31T05:43:29;99861.63;;;14.27;89.04
13934;BME280;7039;52.168;9.866;2023-08-31T05:45:56;99858.00;;;14.16;89.07
13934;BME280;7039;52.168;9.866;2023-08-31T05:48:22;99854.31;;;14.19;88.88
13934;BME280;7039;52.168;9.866;2023-08-31T05:50:49;99852.28;;;14.11;89.31
13934;BME280;7039;52.168;9.866;2023-08-31T05:53:16;99856.47;;;14.14;88.91
13934;BME280;7039;52.168;9.866;2023-08-31T05:55:43;99847.56;;;13.92;88.14
13934;BME280;7039;52.168;9.866;2023-08-31T05:58:09;99859.34;;;13.87;88.14
13934;BME280;7039;52.168;9.866;2023-08-31T06:00:36;99862.72;;;14.00;88.40
13934;BME280;7039;52.168;9.866;2023-08-31T06:03:04;99859.81;;;13.92;87.69
13934;BME280;7039;52.168;9.866;2023-08-31T06:05:31;99868.47;;;14.05;88.16
13934;BME280;7039;52.168;9.866;2023-08-31T06:07:58;99876.31;;;14.40;87.14
13934;BME280;7039;52.168;9.866;2023-08-31T06:10:25;99880.94;;;14.72;86.00
13934;BME280;7039;52.168;9.866;2023-08-31T06:12:52;99875.44;;;14.75;85.13
13934;BME280;7039;52.168;9.866;2023-08-31T06:15:18;99874.84;;;14.60;85.39
13934;BME280;7039;52.168;9.866;2023-08-31T06:17:45;99872.38;;;14.46;85.82
13934;BME280;7039;52.168;9.866;2023-08-31T06:20:11;99873.56;;;14.31;86.05
13934;BME280;7039;52.168;9.866;2023-08-31T06:22:38;99876.09;;;14.44;85.71
13934;BME280;7039;52.168;9.866;2023-08-31T06:25:04;99877.84;;;14.32;86.51
13934;BME280;7039;52.168;9.866;2023-08-31T06:27:33;99865.72;;;14.42;86.57
13934;BME280;7039;52.168;9.866;2023-08-31T06:30:00;99874.91;;;14.48;86.26
13934;BME280;7039;52.168;9.866;2023-08-31T06:32:28;99871.38;;;14.60;85.55
13934;BME280;7039;52.168;9.866;2023-08-31T06:34:54;99865.53;;;14.68;85.13
13934;BME280;7039;52.168;9.866;2023-08-31T06:37:21;99866.13;;;14.71;85.63
13934;BME280;7039;52.168;9.866;2023-08-31T06:39:47;99863.41;;;14.73;84.55
13934;BME280;7039;52.168;9.866;2023-08-31T06:42:14;99863.38;;;14.61;82.76
13934;BME280;7039;52.168;9.866;2023-08-31T06:44:42;99867.09;;;14.81;84.94
13934;BME280;7039;52.168;9.866;2023-08-31T06:47:08;99866.75;;;14.86;83.31
13934;BME280;7039;52.168;9.866;2023-08-31T06:49:35;99873.44;;;15.13;83.83
13934;BME280;7039;52.168;9.866;2023-08-31T06:52:01;99868.53;;;14.74;82.64
13934;BME280;7039;52.168;9.866;2023-08-31T06:54:28;99861.75;;;14.94;83.10
13934;BME280;7039;52.168;9.866;2023-08-31T06:56:54;99862.56;;;14.72;82.66
13934;BME280;7039;52.168;9.866;2023-08-31T06:59:21;99861.94;;;14.69;83.31
13934;BME280;7039;52.168;9.866;2023-08-31T07:01:49;99860.03;;;14.59;84.08
13934;BME280;7039;52.168;9.866;2023-08-31T07:04:15;99861.53;;;14.51;84.00
13934;BME280;7039;52.168;9.866;2023-08-31T07:06:42;99862.19;;;14.54;84.66
13934;BME280;7039;52.168;9.866;2023-08-31T07:09:08;99858.19;;;14.26;84.60
13934;BME280;7039;52.168;9.866;2023-08-31T07:11:35;99860.44;;;14.31;85.37
13934;BME280;7039;52.168;9.866;2023-08-31T07:14:01;99871.31;;;14.49;84.87
13934;BME280;7039;52.168;9.866;2023-08-31T07:16:28;99873.72;;;14.52;85.52
13934;BME280;7039;52.168;9.866;2023-08-31T07:18:56;99876.22;;;14.42;84.76
13934;BME280;7039;52.168;9.866;2023-08-31T07:21:22;99877.03;;;14.31;84.91
13934;BME280;7039;52.168;9.866;2023-08-31T07:23:49;99869.19;;;14.54;84.46
13934;BME280;7039;52.168;9.866;2023-08-31T07:26:15;99885.13;;;14.75;83.48
13934;BME280;7039;52.168;9.866;2023-08-31T07:28:42;99887.75;;;14.75;83.41
13934;BME280;7039;52.168;9.866;2023-08-31T07:31:08;99891.09;;;15.11;82.65
13934;BME280;7039;52.168;9.866;2023-08-31T07:33:35;99890.50;;;15.07;82.98
13934;BME280;7039;52.168;9.866;2023-08-31T07:36:03;99887.41;;;15.02;83.20
13934;BME280;7039;52.168;9.866;2023-08-31T07:38:30;99890.13;;;15.12;83.11
13934;BME280;7039;52.168;9.866;2023-08-31T07:40:57;99909.09;;;15.38;83.16
13934;BME280;7039;52.168;9.866;2023-08-31T07:43:25;99902.06;;;15.38;81.36
13934;BME280;7039;52.168;9.866;2023-08-31T07:45:52;99906.13;;;15.42;81.09
13934;BME280;7039;52.168;9.866;2023-08-31T07:48:18;99916.97;;;15.72;80.63
13934;BME280;7039;52.168;9.866;2023-08-31T07:50:45;99909.31;;;15.46;81.10
13934;BME280;7039;52.168;9.866;2023-08-31T07:53:13;99913.97;;;15.54;79.59
13934;BME280;7039;52.168;9.866;2023-08-31T07:55:39;99906.19;;;15.63;79.81
13934;BME280;7039;52.168;9.866;2023-08-31T07:58:06;99914.72;;;15.99;79.40
13934;BME280;7039;52.168;9.866;2023-08-31T08:00:32;99920.66;;;16.34;79.76
13934;BME280;7039;52.168;9.866;2023-08-31T08:02:59;99907.22;;;15.95;77.43
13934;BME280;7039;52.168;9.866;2023-08-31T08:05:25;99911.94;;;16.33;76.96
13934;BME280;7039;52.168;9.866;2023-08-31T08:07:52;99905.69;;;15.81;76.23
13934;BME280;7039;52.168;9.866;2023-08-31T08:10:20;99916.59;;;15.76;78.43
13934;BME280;7039;52.168;9.866;2023-08-31T08:12:46;99906.66;;;15.69;78.06
13934;BME280;7039;52.168;9.866;2023-08-31T08:15:13;99924.81;;;15.83;80.32
13934;BME280;7039;52.168;9.866;2023-08-31T08:17:40;99922.06;;;15.84;77.86
13934;BME280;7039;52.168;9.866;2023-08-31T08:20:07;99932.38;;;16.08;79.33
13934;BME280;7039;52.168;9.866;2023-08-31T08:22:34;99941.28;;;16.49;77.32
13934;BME280;7039;52.168;9.866;2023-08-31T08:25:02;99939.13;;;16.22;75.97
13934;BME280;7039;52.168;9.866;2023-08-31T08:27:30;99938.97;;;16.03;75.29
13934;BME280;7039;52.168;9.866;2023-08-31T08:29:58;99938.03;;;16.04;75.42
13934;BME280;7039;52.168;9.866;2023-08-31T08:32:24;99942.31;;;16.05;76.95
13934;BME280;7039;52.168;9.866;2023-08-31T08:34:51;99945.00;;;16.26;75.90
13934;BME280;7039;52.168;9.866;2023-08-31T08:37:17;99933.91;;;16.11;76.66
13934;BME280;7039;52.168;9.866;2023-08-31T08:39:48;99938.72;;;16.38;76.37
13934;BME280;7039;52.168;9.866;2023-08-31T08:42:16;99947.00;;;16.55;77.19
13934;BME280;7039;52.168;9.866;2023-08-31T08:44:45;99942.66;;;16.12;77.31
13934;BME280;7039;52.168;9.866;2023-08-31T08:47:12;99939.31;;;16.10;77.40
13934;BME280;7039;52.168;9.866;2023-08-31T08:49:39;99939.72;;;15.94;76.82
13934;BME280;7039;52.168;9.866;2023-08-31T08:52:06;99945.00;;;16.26;76.61
13934;BME280;7039;52.168;9.866;2023-08-31T08:54:32;99943.00;;;16.39;77.25
13934;BME280;7039;52.168;9.866;2023-08-31T08:57:00;99938.81;;;16.16;76.07
13934;BME280;7039;52.168;9.866;2023-08-31T08:59:29;99935.19;;;16.17;75.85
13934;BME280;7039;52.168;9.866;2023-08-31T09:01:57;99947.31;;;16.61;75.43
13934;BME280;7039;52.168;9.866;2023-08-31T09:04:24;99948.19;;;16.83;74.94
13934;BME280;7039;52.168;9.866;2023-08-31T09:06:50;99949.50;;;16.98;73.49
13934;BME280;7039;52.168;9.866;2023-08-31T09:09:17;99948.28;;;17.02;74.19
13934;BME280;7039;52.168;9.866;2023-08-31T09:11:45;99947.97;;;16.54;73.35
13934;BME280;7039;52.168;9.866;2023-08-31T09:14:15;99940.63;;;16.57;75.00
13934;BME280;7039;52.168;9.866;2023-08-31T09:16:44;99936.28;;;16.88;74.26
13934;BME280;7039;52.168;9.866;2023-08-31T09:19:19;99926.88;;;16.75;74.12
13934;BME280;7039;52.168;9.866;2023-08-31T09:21:47;99936.69;;;16.84;74.82
13934;BME280;7039;52.168;9.866;2023-08-31T09:24:13;99932.47;;;17.02;74.56
13934;BME280;7039;52.168;9.866;2023-08-31T09:26:43;99934.31;;;17.11;73.87
13934;BME280;7039;52.168;9.866;2023-08-31T09:29:09;99930.03;;;16.89;74.32
13934;BME280;7039;52.168;9.866;2023-08-31T09:31:36;99925.22;;;16.74;74.85
13934;BME280;7039;52.168;9.866;2023-08-31T09:34:03;99942.06;;;17.03;74.37
13934;BME280;7039;52.168;9.866;2023-08-31T09:36:31;99936.69;;;16.84;74.28
13934;BME280;7039;52.168;9.866;2023-08-31T09:38:58;99940.56;;;17.10;74.58
13934;BME280;7039;52.168;9.866;2023-08-31T09:41:24;99940.19;;;17.25;74.10
13934;BME280;7039;52.168;9.866;2023-08-31T09:43:51;99930.69;;;17.43;73.90
13934;BME280;7039;52.168;9.866;2023-08-31T09:46:18;99920.13;;;17.03;75.10
13934;BME280;7039;52.168;9.866;2023-08-31T09:48:46;99922.00;;;16.91;75.42
13934;BME280;7039;52.168;9.866;2023-08-31T09:51:14;99907.06;;;17.32;76.33
13934;BME280;7039;52.168;9.866;2023-08-31T09:53:47;99923.25;;;17.18;74.54
13934;BME280;7039;52.168;9.866;2023-08-31T09:56:18;99911.03;;;16.86;75.34
13934;BME280;7039;52.168;9.866;2023-08-31T09:58:47;99906.16;;;16.60;75.83
13934;BME280;7039;52.168;9.866;2023-08-31T10:01:14;99920.03;;;16.83;75.43
13934;BME280;7039;52.168;9.866;2023-08-31T10:03:40;99916.50;;;16.94;74.04
13934;BME280;7039;52.168;9.866;2023-08-31T10:06:08;99924.41;;;17.35;73.43
13934;BME280;7039;52.168;9.866;2023-08-31T10:08:35;99928.22;;;17.51;73.22
13934;BME280;7039;52.168;9.866;2023-08-31T10:11:05;99927.66;;;17.48;74.02
13934;BME280;7039;52.168;9.866;2023-08-31T10:13:32;99925.19;;;17.16;73.99
13934;BME280;7039;52.168;9.866;2023-08-31T10:16:02;99937.25;;;17.49;74.56
13934;BME280;7039;52.168;9.866;2023-08-31T10:18:30;99929.44;;;17.07;74.11
13934;BME280;7039;52.168;9.866;2023-08-31T10:20:58;99937.09;;;17.10;74.89
13934;BME280;7039;52.168;9.866;2023-08-31T10:23:24;99928.91;;;16.82;75.75
13934;BME280;7039;52.168;9.866;2023-08-31T10:26:01;99943.75;;;17.14;77.21
13934;BME280;7039;52.168;9.866;2023-08-31T10:28:39;99943.00;;;17.33;75.83
13934;BME280;7039;52.168;9.866;2023-08-31T10:31:06;99935.44;;;17.59;75.81
13934;BME280;7039;52.168;9.866;2023-08-31T10:33:34;99925.31;;;17.14;74.58
13934;BME280;7039;52.168;9.866;2023-08-31T10:36:01;99928.66;;;17.16;76.28
13934;BME280;7039;52.168;9.866;2023-08-31T10:38:29;99930.88;;;17.61;75.01
13934;BME280;7039;52.168;9.866;2023-08-31T10:41:01;99939.28;;;17.95;73.43
13934;BME280;7039;52.168;9.866;2023-08-31T10:43:43;99925.41;;;18.13;73.94
13934;BME280;7039;52.168;9.866;2023-08-31T10:46:15;99931.50;;;18.52;73.05
13934;BME280;7039;52.168;9.866;2023-08-31T10:48:49;99910.53;;;18.02;70.86
13934;BME280;7039;52.168;9.866;2023-08-31T10:51:16;99954.16;;;17.97;70.94
13934;BME280;7039;52.168;9.866;2023-08-31T10:53:45;99919.28;;;17.83;71.68
13934;BME280;7039;52.168;9.866;2023-08-31T10:56:11;99911.66;;;18.00;71.45
13934;BME280;7039;52.168;9.866;2023-08-31T10:58:40;99916.38;;;17.96;70.46
13934;BME280;7039;52.168;9.866;2023-08-31T11:01:06;99920.22;;;17.72;69.04
13934;BME280;7039;52.168;9.866;2023-08-31T11:03:59;99935.13;;;18.32;70.26
13934;BME280;7039;52.168;9.866;2023-08-31T11:06:25;99939.69;;;18.01;68.99
13934;BME280;7039;52.168;9.866;2023-08-31T11:08:55;99942.72;;;17.77;70.81
13934;BME280;7039;52.168;9.866;2023-08-31T11:11:23;99930.59;;;17.64;70.91
13934;BME280;7039;52.168;9.866;2023-08-31T11:13:56;99939.81;;;17.89;70.62
13934;BME280;7039;52.168;9.866;2023-08-31T11:16:23;99934.28;;;18.41;69.68
13934;BME280;7039;52.168;9.866;2023-08-31T11:18:49;99947.16;;;18.93;68.65
13934;BME280;7039;52.168;9.866;2023-08-31T11:21:16;99941.59;;;18.86;68.38
13934;BME280;7039;52.168;9.866;2023-08-31T11:23:43;99948.97;;;18.73;68.32
13934;BME280;7039;52.168;9.866;2023-08-31T11:26:09;99944.28;;;18.67;69.84
13934;BME280;7039;52.168;9.866;2023-08-31T11:28:36;99939.94;;;18.75;69.33
13934;BME280;7039;52.168;9.866;2023-08-31T11:31:04;99935.81;;;18.44;70.61
13934;BME280;7039;52.168;9.866;2023-08-31T11:33:31;99937.03;;;18.59;69.13
13934;BME280;7039;52.168;9.866;2023-08-31T11:35:58;99928.25;;;18.68;69.07
13934;BME280;7039;52.168;9.866;2023-08-31T11:38:25;99925.16;;;19.02;69.19
13934;BME280;7039;52.168;9.866;2023-08-31T11:40:56;99929.69;;;19.10;68.17
13934;BME280;7039;52.168;9.866;2023-08-31T11:43:23;99930.56;;;19.38;69.20
13934;BME280;7039;52.168;9.866;2023-08-31T11:45:50;99948.97;;;19.30;68.23
13934;BME280;7039;52.168;9.866;2023-08-31T11:48:18;99925.09;;;18.65;68.36
13934;BME280;7039;52.168;9.866;2023-08-31T11:50:44;99929.16;;;18.49;69.87
13934;BME280;7039;52.168;9.866;2023-08-31T11:53:11;99931.38;;;18.44;69.13
13934;BME280;7039;52.168;9.866;2023-08-31T11:55:49;99916.66;;;18.22;69.63
13934;BME280;7039;52.168;9.866;2023-08-31T11:58:16;99938.59;;;18.32;68.45
13934;BME280;7039;52.168;9.866;2023-08-31T12:00:42;99926.06;;;18.64;67.47
13934;BME280;7039;52.168;9.866;2023-08-31T12:03:09;99926.25;;;18.33;67.11
13934;BME280;7039;52.168;9.866;2023-08-31T12:05:46;99921.88;;;18.61;66.63
13934;BME280;7039;52.168;9.866;2023-08-31T12:08:13;99930.69;;;19.09;66.88
13934;BME280;7039;52.168;9.866;2023-08-31T12:10:41;99934.97;;;19.19;67.42
13934;BME280;7039;52.168;9.866;2023-08-31T12:13:08;99926.22;;;19.37;65.98
13934;BME280;7039;52.168;9.866;2023-08-31T12:15:34;99936.25;;;19.43;63.70
13934;BME280;7039;52.168;9.866;2023-08-31T12:18:06;99920.38;;;19.43;63.69
13934;BME280;7039;52.168;9.866;2023-08-31T12:20:33;99929.56;;;19.39;63.44
13934;BME280;7039;52.168;9.866;2023-08-31T12:23:07;99924.38;;;19.19;62.92
13934;BME280;7039;52.168;9.866;2023-08-31T12:25:35;99942.06;;;19.19;62.62
13934;BME280;7039;52.168;9.866;2023-08-31T12:28:03;99940.34;;;19.28;63.19
13934;BME280;7039;52.168;9.866;2023-08-31T12:30:29;99930.31;;;18.94;64.92
13934;BME280;7039;52.168;9.866;2023-08-31T12:32:56;99943.00;;;18.71;64.03
13934;BME280;7039;52.168;9.866;2023-08-31T12:35:23;99948.44;;;18.60;64.23
13934;BME280;7039;52.168;9.866;2023-08-31T12:37:49;99950.50;;;18.95;63.98
13934;BME280;7039;52.168;9.866;2023-08-31T12:40:17;99962.69;;;19.43;63.17
13934;BME280;7039;52.168;9.866;2023-08-31T12:42:45;99959.97;;;19.35;63.61
13934;BME280;7039;52.168;9.866;2023-08-31T12:45:11;99956.13;;;19.10;63.86
13934;BME280;7039;52.168;9.866;2023-08-31T12:47:38;99967.22;;;19.23;65.65
13934;BME280;7039;52.168;9.866;2023-08-31T12:50:05;99961.78;;;18.87;65.12
13934;BME280;7039;52.168;9.866;2023-08-31T12:52:32;99961.03;;;19.05;65.54
13934;BME280;7039;52.168;9.866;2023-08-31T12:54:58;99961.81;;;19.52;65.86
13934;BME280;7039;52.168;9.866;2023-08-31T12:57:26;99972.75;;;19.67;65.09
13934;BME280;7039;52.168;9.866;2023-08-31T12:59:52;99969.84;;;19.88;63.55
13934;BME280;7039;52.168;9.866;2023-08-31T13:02:19;99965.72;;;20.39;63.35
13934;BME280;7039;52.168;9.866;2023-08-31T13:04:45;99970.03;;;20.58;61.74
13934;BME280;7039;52.168;9.866;2023-08-31T13:07:12;99952.94;;;19.99;62.44
13934;BME280;7039;52.168;9.866;2023-08-31T13:09:38;99974.09;;;20.71;61.36
13934;BME280;7039;52.168;9.866;2023-08-31T13:12:05;99973.72;;;20.48;58.94
13934;BME280;7039;52.168;9.866;2023-08-31T13:14:33;99958.50;;;20.14;60.06
13934;BME280;7039;52.168;9.866;2023-08-31T13:16:59;99979.44;;;20.79;59.78
13934;BME280;7039;52.168;9.866;2023-08-31T13:19:26;99963.88;;;19.86;61.71
13934;BME280;7039;52.168;9.866;2023-08-31T13:21:52;99958.19;;;19.16;64.06
13934;BME280;7039;52.168;9.866;2023-08-31T13:24:19;99956.94;;;18.83;65.82
13934;BME280;7039;52.168;9.866;2023-08-31T13:26:46;99954.25;;;18.92;65.63